Time;durP1;ratioP1;P1;durP2;ratioP2;P2;SDS_P1;SDS_P2;PMS_P1;PMS_P2;Temp;Humidity;BMP_temperature;BMP_pressure;BME280_temperature;BME280_humidity;BME280_pressure;Samples;Min_cycle;Max_cycle;Signal;HPM_P1;HPM_P2
2022/10/12 00:01:50;;;;;;;37.45;24.80;;;12.00;99.90;;;;;;5012031;28;20125;-84
2022/10/12 00:04:16;;;;;;;37.50;25.02;;;11.90;99.90;;;;;;5008323;28;20095;-82
2022/10/12 00:06:42;;;;;;;36.70;23.70;;;12.00;99.90;;;;;;5038365;28;20076;-82
2022/10/12 00:09:07;;;;;;;44.25;28.10;;;12.00;99.90;;;;;;5037837;28;20039;-83
2022/10/12 00:11:33;;;;;;;41.92;27.00;;;12.10;99.90;;;;;;5019419;28;20044;-83
2022/10/12 00:13:59;;;;;;;44.92;27.30;;;12.10;99.90;;;;;;5020109;28;20033;-84
2022/10/12 00:16:25;;;;;;;40.08;24.42;;;12.20;99.90;;;;;;5030470;28;20022;-82
2022/10/12 00:18:52;;;;;;;33.17;24.25;;;12.20;99.90;;;;;;5018737;28;20045;-84
2022/10/12 00:21:19;;;;;;;37.13;25.20;;;12.20;99.90;;;;;;5034377;28;20021;-84
2022/10/12 00:23:45;;;;;;;37.33;24.98;;;12.20;99.90;;;;;;5036850;28;20036;-80
2022/10/12 00:26:14;;;;;;;37.67;24.23;;;12.20;99.90;;;;;;5011730;28;20041;-82
2022/10/12 00:28:39;;;;;;;41.25;25.13;;;12.20;99.90;;;;;;5014088;28;20029;-80
2022/10/12 00:31:14;;;;;;;38.78;23.50;;;12.30;99.90;;;;;;5030131;28;20084;-83
2022/10/12 00:33:40;;;;;;;37.70;25.25;;;12.30;99.90;;;;;;5023475;28;20021;-81
2022/10/12 00:36:26;;;;;;;31.58;22.65;;;12.30;99.90;;;;;;5045884;28;20087;-83
2022/10/12 00:38:53;;;;;;;33.00;22.23;;;12.30;99.90;;;;;;5025454;28;20029;-84
2022/10/12 00:41:23;;;;;;;34.28;23.13;;;12.30;99.90;;;;;;5035110;28;20026;-85
2022/10/12 00:43:49;;;;;;;38.00;24.00;;;12.30;99.90;;;;;;5005665;28;20051;-84
2022/10/12 00:46:41;;;;;;;36.67;23.95;;;12.30;99.90;;;;;;5045589;28;20026;-84
2022/10/12 00:49:16;;;;;;;31.17;22.33;;;12.30;99.90;;;;;;5047439;28;20033;-83
2022/10/12 00:51:45;;;;;;;30.27;21.70;;;12.30;99.90;;;;;;5041862;28;20048;-83
2022/10/12 00:54:16;;;;;;;37.92;24.40;;;12.30;99.90;;;;;;5026294;28;20556;-83
2022/10/12 00:56:45;;;;;;;35.65;24.38;;;12.30;99.90;;;;;;5033056;28;20040;-84
2022/10/12 00:59:26;;;;;;;31.77;21.63;;;12.30;99.90;;;;;;5041764;28;20033;-84
2022/10/12 01:01:52;;;;;;;23.85;18.38;;;12.30;99.90;;;;;;5038695;28;20025;-83
2022/10/12 01:04:17;;;;;;;26.02;18.05;;;12.30;99.90;;;;;;5028407;28;20029;-84
2022/10/12 01:06:43;;;;;;;31.40;20.13;;;12.30;99.90;;;;;;5028024;28;20025;-84
2022/10/12 01:09:09;;;;;;;24.05;17.58;;;12.40;99.90;;;;;;5040394;28;20021;-83
2022/10/12 01:11:34;;;;;;;22.77;16.38;;;12.40;99.90;;;;;;5022170;28;20620;-82
2022/10/12 01:14:00;;;;;;;23.02;15.05;;;12.40;99.90;;;;;;5042690;28;20029;-83
2022/10/12 01:16:45;;;;;;;33.00;19.98;;;12.40;99.90;;;;;;5046388;28;20025;-82
2022/10/12 01:19:28;;;;;;;26.23;18.63;;;12.40;99.90;;;;;;5028105;28;20037;-83
2022/10/12 01:22:02;;;;;;;23.88;15.57;;;12.40;99.90;;;;;;5031846;28;20116;-83
2022/10/12 01:24:50;;;;;;;21.08;16.00;;;12.40;99.90;;;;;;5040892;28;20026;-84
2022/10/12 01:27:34;;;;;;;29.85;18.40;;;12.40;99.90;;;;;;5045284;28;20045;-84
2022/10/12 01:30:12;;;;;;;23.88;18.73;;;12.50;99.90;;;;;;5036195;28;20030;-83
2022/10/12 01:33:02;;;;;;;24.88;17.60;;;12.40;99.90;;;;;;5030567;28;20079;-84
2022/10/12 01:35:37;;;;;;;28.83;18.52;;;12.50;99.90;;;;;;5053219;28;20021;-84
2022/10/12 01:38:40;;;;;;;23.33;16.48;;;12.50;99.90;;;;;;5045014;28;20048;-83
2022/10/12 01:41:18;;;;;;;30.60;20.70;;;12.50;99.90;;;;;;5046376;28;20034;-80
2022/10/12 01:43:45;;;;;;;29.02;19.55;;;12.50;99.90;;;;;;5045902;28;20083;-83
2022/10/12 01:46:14;;;;;;;27.02;18.40;;;12.50;99.90;;;;;;5028372;28;20049;-82
2022/10/12 01:48:42;;;;;;;31.38;19.23;;;12.50;99.90;;;;;;5045894;28;20044;-82
2022/10/12 01:51:11;;;;;;;29.77;19.20;;;12.50;99.90;;;;;;5045060;28;20032;-82
2022/10/12 01:53:46;;;;;;;27.15;18.38;;;12.60;99.90;;;;;;5029912;28;20024;-83
2022/10/12 01:56:28;;;;;;;24.05;16.67;;;12.60;99.90;;;;;;5024382;28;20022;-83
2022/10/12 01:59:09;;;;;;;24.60;17.13;;;12.60;99.90;;;;;;5038709;28;20104;-84
2022/10/12 02:01:41;;;;;;;25.33;17.15;;;12.70;99.90;;;;;;5023310;28;20017;-84
2022/10/12 02:04:43;;;;;;;33.53;21.25;;;12.70;99.90;;;;;;5022727;28;20030;-84
2022/10/12 02:07:20;;;;;;;29.75;19.08;;;12.70;99.90;;;;;;5041847;28;20036;-84
2022/10/12 02:09:47;;;;;;;30.45;20.23;;;12.70;99.90;;;;;;5054078;28;20029;-83
2022/10/12 02:12:19;;;;;;;26.98;17.95;;;12.70;99.90;;;;;;5050189;28;20031;-79
2022/10/12 02:14:51;;;;;;;24.05;15.45;;;12.70;99.90;;;;;;5058878;28;20020;-81
2022/10/12 02:17:20;;;;;;;26.45;18.15;;;12.80;99.90;;;;;;5050288;28;20064;-83
2022/10/12 02:19:57;;;;;;;23.10;16.15;;;12.70;99.90;;;;;;5023806;28;20474;-81
2022/10/12 02:22:27;;;;;;;23.75;15.55;;;12.70;99.90;;;;;;5041191;28;20132;-83
2022/10/12 02:24:56;;;;;;;21.25;13.73;;;12.70;99.90;;;;;;5040585;28;20079;-81
2022/10/12 02:27:25;;;;;;;20.95;14.57;;;12.80;99.90;;;;;;5036268;28;20045;-82
2022/10/12 02:29:51;;;;;;;30.50;19.10;;;12.80;99.90;;;;;;5023271;28;20045;-83
2022/10/12 02:32:34;;;;;;;27.00;17.75;;;12.80;99.90;;;;;;5038841;28;20034;-83
2022/10/12 02:35:20;;;;;;;32.20;20.25;;;12.80;99.90;;;;;;5055277;28;20021;-84
2022/10/12 02:37:52;;;;;;;44.40;26.55;;;12.70;99.90;;;;;;5038910;28;20017;-81
2022/10/12 02:40:21;;;;;;;;;;;12.70;99.90;;;;;;5039197;28;20028;-83
2022/10/12 02:43:04;;;;;;;53.30;30.00;;;12.70;99.90;;;;;;5039590;28;20277;-82
2022/10/12 02:45:33;;;;;;;50.45;29.65;;;12.60;99.90;;;;;;5025044;28;20490;-81
2022/10/12 02:47:59;;;;;;;52.53;30.10;;;12.60;99.90;;;;;;5048811;28;20075;-83
2022/10/12 02:50:30;;;;;;;61.97;33.95;;;12.50;99.90;;;;;;5013053;28;20033;-82
2022/10/12 02:52:57;;;;;;;;;;;12.50;99.90;;;;;;5052085;22;20046;-83
2022/10/12 02:55:23;;;;;;;58.10;30.05;;;12.50;99.90;;;;;;5039431;28;20339;-82
2022/10/12 02:57:49;;;;;;;64.13;32.75;;;12.40;99.90;;;;;;5021767;28;20090;-83
2022/10/12 03:00:15;;;;;;;62.95;33.60;;;12.40;99.90;;;;;;5034432;28;20052;-84
2022/10/12 03:02:43;;;;;;;60.00;32.25;;;12.40;99.90;;;;;;5011155;28;20099;-84
2022/10/12 03:05:08;;;;;;;58.15;30.77;;;12.40;99.90;;;;;;4987725;28;20185;-84
2022/10/12 03:07:34;;;;;;;61.00;33.95;;;12.40;99.90;;;;;;5018858;28;20077;-83
2022/10/12 03:10:00;;;;;;;67.22;32.95;;;12.30;99.90;;;;;;5003380;28;20064;-83
2022/10/12 03:12:25;;;;;;;83.85;38.97;;;12.30;99.90;;;;;;5009701;28;20038;-80
2022/10/12 03:14:51;;;;;;;73.55;36.88;;;12.40;99.90;;;;;;5042858;28;20033;-81
2022/10/12 03:17:17;;;;;;;62.55;33.25;;;12.30;99.90;;;;;;5025167;28;20021;-82
2022/10/12 03:19:42;;;;;;;63.70;31.90;;;12.30;99.90;;;;;;5037099;28;20030;-81
2022/10/12 03:22:08;;;;;;;58.85;32.53;;;12.30;99.90;;;;;;5017688;28;20017;-82
2022/10/12 03:24:34;;;;;;;59.13;29.98;;;12.30;99.90;;;;;;5032167;28;20049;-80
2022/10/12 03:26:59;;;;;;;50.88;26.73;;;12.30;99.90;;;;;;5028868;28;20123;-83
2022/10/12 03:29:26;;;;;;;45.72;25.75;;;12.30;99.90;;;;;;5018988;28;20038;-83
2022/10/12 03:31:52;;;;;;;67.60;31.50;;;12.40;99.90;;;;;;5018456;28;20445;-82
2022/10/12 03:34:18;;;;;;;64.90;33.72;;;12.40;99.90;;;;;;5005500;28;20080;-83
2022/10/12 03:36:43;;;;;;;58.08;30.92;;;12.30;99.90;;;;;;5005795;28;20041;-82
2022/10/12 03:39:10;;;;;;;59.47;32.03;;;12.30;99.90;;;;;;5006642;28;20022;-84
2022/10/12 03:41:36;;;;;;;69.60;32.75;;;12.30;99.90;;;;;;5007568;28;20058;-83
2022/10/12 03:44:02;;;;;;;75.38;35.95;;;12.30;99.90;;;;;;5023877;28;20025;-82
2022/10/12 03:46:28;;;;;;;66.82;34.10;;;12.30;99.90;;;;;;4996694;28;20057;-82
2022/10/12 03:48:53;;;;;;;72.78;38.13;;;12.30;99.90;;;;;;5024008;28;20374;-83
2022/10/12 03:51:19;;;;;;;61.22;33.10;;;12.30;99.90;;;;;;5024651;28;20391;-83
2022/10/12 03:53:45;;;;;;;70.93;33.72;;;12.20;99.90;;;;;;5002637;28;20069;-83
2022/10/12 03:56:10;;;;;;;68.75;35.30;;;12.20;99.90;;;;;;5012719;28;20100;-80
2022/10/12 03:58:36;;;;;;;69.00;32.67;;;12.20;99.90;;;;;;5036338;28;20038;-80
2022/10/12 04:01:02;;;;;;;80.15;38.50;;;12.10;99.90;;;;;;5008696;28;20026;-83
2022/10/12 04:03:28;;;;;;;65.00;31.52;;;12.10;99.90;;;;;;4995670;28;20037;-82
2022/10/12 04:05:55;;;;;;;69.30;32.70;;;12.20;99.90;;;;;;5033548;28;20041;-81
2022/10/12 04:08:21;;;;;;;62.88;33.55;;;12.20;99.90;;;;;;5039990;28;20025;-82
2022/10/12 04:10:49;;;;;;;70.68;31.50;;;12.20;99.90;;;;;;5046041;28;20061;-80
2022/10/12 04:13:15;;;;;;;63.38;32.55;;;12.20;99.90;;;;;;5018912;28;20097;-82
2022/10/12 04:15:41;;;;;;;70.68;34.70;;;12.20;99.90;;;;;;5016071;28;20038;-82
2022/10/12 04:18:07;;;;;;;63.83;34.67;;;12.20;99.90;;;;;;5027792;28;20034;-80
2022/10/12 04:20:32;;;;;;;73.53;36.17;;;12.20;99.90;;;;;;5016765;28;20027;-82
2022/10/12 04:22:58;;;;;;;58.05;31.33;;;12.10;99.90;;;;;;5000241;28;20026;-81
2022/10/12 04:25:24;;;;;;;60.00;29.33;;;12.20;99.90;;;;;;5017114;28;20014;-81
2022/10/12 04:27:50;;;;;;;63.33;32.67;;;12.20;99.90;;;;;;5018490;28;20101;-82
2022/10/12 04:30:16;;;;;;;60.28;29.08;;;12.20;99.90;;;;;;5014998;28;20137;-83
2022/10/12 04:32:41;;;;;;;56.45;29.88;;;12.20;99.90;;;;;;5020342;28;20450;-82
2022/10/12 04:35:07;;;;;;;53.40;28.20;;;12.20;99.90;;;;;;5013838;28;20018;-82
2022/10/12 04:37:33;;;;;;;64.97;32.33;;;12.30;99.90;;;;;;4999746;28;20698;-83
2022/10/12 04:39:59;;;;;;;62.40;30.70;;;12.30;99.90;;;;;;5024460;28;20085;-83
2022/10/12 04:42:25;;;;;;;59.40;30.15;;;12.30;99.90;;;;;;5006212;28;20108;-83
2022/10/12 04:44:50;;;;;;;67.97;31.55;;;12.30;99.90;;;;;;4981677;28;20026;-83
2022/10/12 04:47:16;;;;;;;68.05;32.17;;;12.40;99.90;;;;;;4995914;28;20049;-83
2022/10/12 04:49:42;;;;;;;63.35;31.02;;;12.30;99.90;;;;;;5022806;28;20436;-82
2022/10/12 04:52:08;;;;;;;69.28;33.20;;;12.40;99.90;;;;;;5029836;28;20060;-83
2022/10/12 04:54:33;;;;;;;74.35;37.45;;;12.40;99.90;;;;;;5004903;28;20029;-84
2022/10/12 04:56:59;;;;;;;72.35;35.78;;;12.40;99.90;;;;;;5019608;28;20022;-84
2022/10/12 04:59:25;;;;;;;68.80;33.38;;;12.30;99.90;;;;;;5023335;28;20030;-82
2022/10/12 05:01:51;;;;;;;65.47;31.33;;;12.30;99.90;;;;;;5041989;28;20038;-82
2022/10/12 05:04:17;;;;;;;61.70;30.83;;;12.30;99.90;;;;;;5025052;28;20045;-81
2022/10/12 05:06:42;;;;;;;55.42;29.05;;;12.30;99.90;;;;;;5037011;28;20025;-80
2022/10/12 05:09:10;;;;;;;62.55;29.45;;;12.30;99.90;;;;;;5038276;28;20060;-81
2022/10/12 05:11:36;;;;;;;61.50;30.55;;;12.30;99.90;;;;;;5054353;28;20030;-83
2022/10/12 05:14:02;;;;;;;64.40;33.83;;;12.30;99.90;;;;;;5019693;28;20014;-82
2022/10/12 05:16:28;;;;;;;77.22;34.22;;;12.30;99.90;;;;;;5037274;28;20022;-83
2022/10/12 05:18:53;;;;;;;68.22;32.92;;;12.30;99.90;;;;;;5045200;28;20529;-82
2022/10/12 05:21:19;;;;;;;62.70;30.88;;;12.30;99.90;;;;;;5024633;28;20426;-83
2022/10/12 05:23:52;;;;;;;52.70;28.63;;;12.30;99.90;;;;;;5004187;28;20033;-82
2022/10/12 05:26:18;;;;;;;49.55;25.67;;;12.40;99.90;;;;;;5040131;28;20044;-83
2022/10/12 05:28:44;;;;;;;50.03;25.15;;;12.40;99.90;;;;;;5017228;28;20124;-83
2022/10/12 05:31:10;;;;;;;38.95;22.00;;;12.50;99.90;;;;;;5038469;28;20057;-84
2022/10/12 05:33:35;;;;;;;38.65;21.95;;;12.50;99.90;;;;;;5028555;28;20025;-86
2022/10/12 05:36:01;;;;;;;54.00;27.42;;;12.60;99.90;;;;;;5015649;28;20086;-82
2022/10/12 05:38:27;;;;;;;51.45;27.85;;;12.60;99.90;;;;;;4993167;28;20037;-82
2022/10/12 05:40:52;;;;;;;70.32;32.83;;;12.50;99.90;;;;;;5020206;28;20030;-82
2022/10/12 05:43:18;;;;;;;60.38;30.92;;;12.50;99.90;;;;;;5005234;28;20113;-83
2022/10/12 05:45:44;;;;;;;57.45;29.55;;;12.60;99.90;;;;;;5018091;28;20044;-83
2022/10/12 05:48:09;;;;;;;78.10;38.65;;;12.60;99.90;;;;;;5013419;28;20029;-82
2022/10/12 05:50:35;;;;;;;70.78;35.63;;;12.60;99.90;;;;;;5023299;28;20030;-82
2022/10/12 05:53:01;;;;;;;71.43;37.05;;;12.50;99.90;;;;;;4985491;28;1115775;-82
2022/10/12 05:55:26;;;;;;;72.75;35.28;;;12.60;99.90;;;;;;5004551;28;20026;-82
2022/10/12 05:57:52;;;;;;;75.20;36.35;;;12.60;99.90;;;;;;5006112;28;20026;-82
2022/10/12 06:00:18;;;;;;;65.50;35.33;;;12.60;99.90;;;;;;5025230;28;20027;-84
2022/10/12 06:02:44;;;;;;;56.40;32.80;;;12.60;99.90;;;;;;5024044;28;20049;-82
2022/10/12 06:05:10;;;;;;;64.28;36.25;;;12.60;99.90;;;;;;5037003;28;20028;-84
2022/10/12 06:07:35;;;;;;;63.83;35.83;;;12.60;99.90;;;;;;5010054;28;20030;-84
2022/10/12 06:10:01;;;;;;;56.45;32.20;;;12.60;99.90;;;;;;5035295;28;20017;-81
2022/10/12 06:12:27;;;;;;;71.38;36.05;;;12.60;99.90;;;;;;5019981;28;20069;-83
2022/10/12 06:14:53;;;;;;;66.55;34.92;;;12.60;99.90;;;;;;5005180;28;20034;-85
2022/10/12 06:17:19;;;;;;;77.43;36.45;;;12.50;99.90;;;;;;5023913;28;20026;-81
2022/10/12 06:19:44;;;;;;;63.15;33.65;;;12.50;99.90;;;;;;5020938;28;20014;-81
2022/10/12 06:22:10;;;;;;;67.95;34.10;;;12.50;99.90;;;;;;5031989;28;20030;-80
2022/10/12 06:24:37;;;;;;;57.38;29.85;;;12.40;99.90;;;;;;5032809;28;20017;-82
2022/10/12 06:27:03;;;;;;;46.88;24.50;;;12.50;99.90;;;;;;5031592;28;20467;-84
2022/10/12 06:29:29;;;;;;;53.95;27.23;;;12.50;99.90;;;;;;5031645;28;20018;-85
2022/10/12 06:31:54;;;;;;;62.78;31.48;;;12.60;99.90;;;;;;5021053;28;20061;-81
2022/10/12 06:34:20;;;;;;;57.55;28.77;;;12.60;99.90;;;;;;5028917;28;20045;-82
2022/10/12 06:36:47;;;;;;;47.30;27.67;;;12.70;99.90;;;;;;5001115;28;20022;-83
2022/10/12 06:39:13;;;;;;;62.25;31.88;;;12.80;99.90;;;;;;5025275;28;20030;-82
2022/10/12 06:41:38;;;;;;;60.03;32.72;;;12.80;99.90;;;;;;5024134;28;20087;-82
2022/10/12 06:44:04;;;;;;;58.60;33.75;;;12.90;99.90;;;;;;5011171;28;20025;-82
2022/10/12 06:46:30;;;;;;;68.10;34.53;;;12.90;99.90;;;;;;5025770;28;20034;-83
2022/10/12 06:48:55;;;;;;;70.13;35.13;;;12.80;99.90;;;;;;5016661;28;20076;-83
2022/10/12 06:51:21;;;;;;;53.30;31.13;;;12.80;99.90;;;;;;5022537;28;20037;-83
2022/10/12 06:53:47;;;;;;;56.50;31.73;;;12.80;99.90;;;;;;5022613;28;20393;-84
2022/10/12 06:56:13;;;;;;;63.65;34.33;;;12.90;99.90;;;;;;5022574;28;20041;-83
2022/10/12 06:58:39;;;;;;;66.60;33.60;;;12.90;99.90;;;;;;5010835;28;20021;-81
2022/10/12 07:01:06;;;;;;;62.45;33.95;;;12.90;99.90;;;;;;5022800;28;20077;-82
2022/10/12 07:03:32;;;;;;;63.05;35.75;;;12.90;99.90;;;;;;5019192;28;20048;-83
2022/10/12 07:06:09;;;;;;;60.58;32.58;;;12.90;99.90;;;;;;5011827;28;20055;-82
2022/10/12 07:08:35;;;;;;;59.33;32.42;;;12.90;99.90;;;;;;5026077;28;20021;-83
2022/10/12 07:11:03;;;;;;;62.97;35.47;;;12.90;99.90;;;;;;5043250;28;20018;-83
2022/10/12 07:13:28;;;;;;;60.38;32.33;;;13.00;99.90;;;;;;5008425;28;20025;-82
2022/10/12 07:15:54;;;;;;;45.90;29.05;;;13.20;99.90;;;;;;5005702;28;20018;-83
2022/10/12 07:18:20;;;;;;;41.47;25.15;;;13.30;99.90;;;;;;5023935;28;20481;-84
2022/10/12 07:20:46;;;;;;;40.38;22.83;;;13.40;99.90;;;;;;5027264;28;20026;-81
2022/10/12 07:23:12;;;;;;;37.63;23.30;;;13.60;99.90;;;;;;5007912;28;20038;-83
2022/10/12 07:25:37;;;;;;;38.10;22.70;;;13.60;99.90;;;;;;5006739;28;20098;-81
2022/10/12 07:28:05;;;;;;;39.42;23.75;;;13.70;99.90;;;;;;5009009;28;20470;-81
2022/10/12 07:30:31;;;;;;;40.05;25.30;;;13.80;99.90;;;;;;5041354;28;20006;-83
2022/10/12 07:32:57;;;;;;;37.55;21.50;;;13.80;99.90;;;;;;5006603;28;20120;-82
2022/10/12 07:35:22;;;;;;;29.48;19.83;;;13.80;99.90;;;;;;5023238;28;20028;-83
2022/10/12 07:37:48;;;;;;;39.13;22.10;;;13.90;99.90;;;;;;5022863;28;20479;-83
2022/10/12 07:40:14;;;;;;;39.10;23.77;;;13.90;99.90;;;;;;5022566;28;20026;-82
2022/10/12 07:42:40;;;;;;;44.55;26.55;;;14.00;99.90;;;;;;5021874;28;20327;-83
2022/10/12 07:45:06;;;;;;;36.30;24.20;;;13.90;99.90;;;;;;4997440;28;20110;-83
2022/10/12 07:47:32;;;;;;;41.90;24.92;;;14.00;99.90;;;;;;4985408;28;20113;-82
2022/10/12 07:49:57;;;;;;;39.75;23.98;;;13.90;99.90;;;;;;5002559;28;20030;-83
2022/10/12 07:52:26;;;;;;;39.75;23.02;;;13.80;99.90;;;;;;5002224;28;20098;-84
2022/10/12 07:54:51;;;;;;;33.63;21.63;;;14.00;99.90;;;;;;5022281;28;20022;-83
2022/10/12 07:57:17;;;;;;;34.08;20.00;;;14.00;99.90;;;;;;5021535;28;20048;-83
2022/10/12 07:59:43;;;;;;;28.30;18.65;;;14.10;99.90;;;;;;5011738;28;20072;-83
2022/10/12 08:02:10;;;;;;;32.55;19.73;;;14.10;99.90;;;;;;5039741;28;20032;-82
2022/10/12 08:04:36;;;;;;;31.98;20.33;;;14.10;99.90;;;;;;5025347;28;20037;-82
2022/10/12 08:07:02;;;;;;;23.58;15.82;;;14.10;99.90;;;;;;5021808;28;20084;-83
2022/10/12 08:09:28;;;;;;;27.58;18.33;;;14.10;99.90;;;;;;5003990;28;20041;-84
2022/10/12 08:11:55;;;;;;;24.65;15.07;;;14.30;99.90;;;;;;5004187;28;20123;-83
2022/10/12 08:14:21;;;;;;;20.25;14.32;;;14.40;99.90;;;;;;5004408;28;20049;-81
2022/10/12 08:16:47;;;;;;;26.25;17.02;;;14.50;99.90;;;;;;5023712;28;20034;-81
2022/10/12 08:19:13;;;;;;;28.27;17.35;;;14.60;99.90;;;;;;5021438;28;20018;-83
2022/10/12 08:21:40;;;;;;;29.65;17.77;;;14.60;99.90;;;;;;5022484;28;20026;-83
2022/10/12 08:24:06;;;;;;;25.48;17.33;;;14.70;99.90;;;;;;5003681;28;20026;-82
2022/10/12 08:26:32;;;;;;;27.50;17.33;;;14.80;99.90;;;;;;5020892;28;20034;-83
2022/10/12 08:28:58;;;;;;;20.02;13.45;;;14.80;99.90;;;;;;5029102;28;20338;-83
2022/10/12 08:31:24;;;;;;;28.67;16.63;;;14.90;99.90;;;;;;5035120;28;20029;-82
2022/10/12 08:33:49;;;;;;;25.15;18.00;;;14.90;99.90;;;;;;5031937;28;20072;-80
2022/10/12 08:36:15;;;;;;;36.92;20.92;;;14.80;99.90;;;;;;5016132;28;20120;-81
2022/10/12 08:38:42;;;;;;;39.25;23.13;;;14.80;99.90;;;;;;4997419;28;20026;-82
2022/10/12 08:41:26;;;;;;;37.58;21.58;;;14.70;99.90;;;;;;5016970;28;20022;-81
2022/10/12 08:44:30;;;;;;;41.80;23.23;;;14.60;99.90;;;;;;5021679;28;20014;-82
2022/10/12 08:47:08;;;;;;;38.25;22.65;;;14.70;99.90;;;;;;5028393;28;20048;-80
2022/10/12 08:49:35;;;;;;;36.03;22.77;;;14.60;99.90;;;;;;5011127;28;20089;-81
2022/10/12 08:52:05;;;;;;;32.97;20.67;;;14.60;99.90;;;;;;5004107;28;20033;-82
2022/10/12 08:54:40;;;;;;;35.10;20.90;;;14.60;99.90;;;;;;5032336;22;20046;-81
2022/10/12 08:57:18;;;;;;;42.70;23.85;;;14.50;99.90;;;;;;5000064;28;20022;-80
2022/10/12 08:59:46;;;;;;;38.55;21.83;;;14.50;99.90;;;;;;4975761;28;20010;-81
2022/10/12 09:02:54;;;;;;;38.53;23.02;;;14.40;99.90;;;;;;4989412;28;20491;-82
2022/10/12 09:05:49;;;;;;;39.10;23.55;;;14.40;99.90;;;;;;4973755;28;20034;-82
2022/10/12 09:08:52;;;;;;;42.72;23.98;;;14.50;99.90;;;;;;4971784;28;20023;-83
2022/10/12 09:11:37;;;;;;;33.65;20.90;;;14.60;99.90;;;;;;4978254;28;20094;-82
2022/10/12 09:14:29;;;;;;;36.97;22.33;;;14.70;99.90;;;;;;4981442;28;20082;-81
2022/10/12 09:16:56;;;;;;;31.35;20.23;;;14.80;99.90;;;;;;4947239;29;20063;-83
2022/10/12 09:19:40;;;;;;;33.75;20.20;;;14.80;99.90;;;;;;4931946;28;20036;-84
2022/10/12 09:22:17;;;;;;;27.55;18.33;;;14.90;99.90;;;;;;4963599;29;20071;-81
2022/10/12 09:24:44;;;;;;;27.00;18.20;;;15.00;99.90;;;;;;4951879;29;20015;-82
2022/10/12 09:27:18;;;;;;;30.98;17.60;;;15.00;99.90;;;;;;4965496;29;20019;-82
2022/10/12 09:29:48;;;;;;;22.60;16.02;;;15.10;99.90;;;;;;4979087;28;20089;-82
2022/10/12 09:32:20;;;;;;;25.52;17.33;;;15.20;99.90;;;;;;4983796;28;20037;-82
2022/10/12 09:34:47;;;;;;;25.48;15.88;;;15.30;99.90;;;;;;4964141;29;20122;-82
2022/10/12 09:37:19;;;;;;;26.15;15.30;;;15.30;99.90;;;;;;4974069;28;20027;-79
2022/10/12 09:39:45;;;;;;;24.02;14.70;;;15.30;99.90;;;;;;4972250;28;20023;-82
2022/10/12 09:42:11;;;;;;;32.05;17.50;;;15.40;99.90;;;;;;4985185;28;20034;-81
2022/10/12 09:44:40;;;;;;;25.35;16.10;;;15.50;99.90;;;;;;4986378;28;20029;-80
2022/10/12 09:47:26;;;;;;;15.82;11.80;;;15.50;99.90;;;;;;4986450;28;20026;-80
2022/10/12 09:49:57;;;;;;;23.38;15.18;;;15.60;99.90;;;;;;4979155;28;20094;-80
2022/10/12 09:52:27;;;;;;;19.65;13.65;;;15.80;99.90;;;;;;4995451;28;20055;-80
2022/10/12 09:55:04;;;;;;;18.40;12.93;;;15.90;99.90;;;;;;4965492;28;20118;-81
2022/10/12 09:57:36;;;;;;;19.48;14.18;;;16.10;99.90;;;;;;4980643;28;20028;-82
2022/10/12 10:00:22;;;;;;;20.65;12.32;;;16.30;99.70;;;;;;4978013;28;20019;-82
2022/10/12 10:02:50;;;;;;;19.92;13.10;;;16.40;99.20;;;;;;4979866;28;20032;-82
2022/10/12 10:05:32;;;;;;;24.58;14.23;;;16.50;98.10;;;;;;4975531;28;20042;-81
2022/10/12 10:08:17;;;;;;;26.15;15.02;;;16.60;97.50;;;;;;4969644;28;20031;-81
2022/10/12 10:10:59;;;;;;;14.15;10.15;;;16.70;96.70;;;;;;4966379;28;20062;-81
2022/10/12 10:13:28;;;;;;;20.38;12.98;;;16.70;97.30;;;;;;4966563;29;20488;-81
2022/10/12 10:16:09;;;;;;;21.58;13.65;;;16.70;96.80;;;;;;4979317;28;20034;-81
2022/10/12 10:18:35;;;;;;;27.02;14.80;;;16.80;96.50;;;;;;4974412;28;20024;-81
2022/10/12 10:21:05;;;;;;;22.75;13.23;;;16.80;95.60;;;;;;4962037;29;20038;-80
2022/10/12 10:23:42;;;;;;;20.08;12.02;;;16.80;96.10;;;;;;4965790;29;20532;-81
2022/10/12 10:26:19;;;;;;;16.35;8.82;;;16.80;95.40;;;;;;4972701;28;20035;-81
2022/10/12 10:28:47;;;;;;;13.57;8.13;;;16.90;95.60;;;;;;4967839;28;20595;-81
2022/10/12 10:31:13;;;;;;;15.20;9.27;;;17.20;95.20;;;;;;4964258;29;20031;-80
2022/10/12 10:33:39;;;;;;;19.92;12.05;;;17.20;94.10;;;;;;4963012;29;20031;-79
2022/10/12 10:36:08;;;;;;;16.83;12.38;;;17.40;93.20;;;;;;4964826;29;20030;-81
2022/10/12 10:38:56;;;;;;;18.65;12.02;;;17.30;92.80;;;;;;4976008;28;20023;-81
2022/10/12 10:41:35;;;;;;;13.43;8.52;;;17.00;93.50;;;;;;4942964;29;20035;-79
2022/10/12 10:44:02;;;;;;;13.05;8.73;;;16.90;94.10;;;;;;4946195;29;20163;-80
2022/10/12 10:46:31;;;;;;;17.40;11.90;;;16.90;94.30;;;;;;4945046;29;20016;-80
2022/10/12 10:49:05;;;;;;;16.30;11.20;;;16.80;93.90;;;;;;4946332;29;20436;-81
2022/10/12 10:51:53;;;;;;;23.42;12.25;;;16.70;94.60;;;;;;4931016;29;20043;-81
2022/10/12 10:54:22;;;;;;;16.27;11.15;;;16.60;94.40;;;;;;4959620;29;20031;-80
2022/10/12 10:56:55;;;;;;;14.85;10.75;;;16.50;94.80;;;;;;4952517;29;20045;-81
2022/10/12 10:59:44;;;;;;;16.20;10.88;;;16.60;94.70;;;;;;4958225;29;20036;-79
2022/10/12 11:02:18;;;;;;;19.85;11.88;;;16.50;94.90;;;;;;4966866;28;20455;-81
2022/10/12 11:04:49;;;;;;;21.25;12.52;;;16.50;94.90;;;;;;4982972;28;20313;-81
2022/10/12 11:07:31;;;;;;;20.40;12.43;;;16.50;94.70;;;;;;4985036;28;20141;-81
2022/10/12 11:10:00;;;;;;;20.88;11.30;;;16.50;95.10;;;;;;4983245;28;20130;-80
2022/10/12 11:12:44;;;;;;;18.52;12.48;;;16.50;95.10;;;;;;4964654;28;20030;-80
2022/10/12 11:15:24;;;;;;;17.80;11.38;;;16.50;95.10;;;;;;4966891;28;20395;-81
2022/10/12 11:17:59;;;;;;;18.35;11.68;;;16.60;95.20;;;;;;4969436;28;20046;-81
2022/10/12 11:20:28;;;;;;;15.48;9.98;;;16.60;94.80;;;;;;4972800;28;20071;-81
2022/10/12 11:23:09;;;;;;;12.73;9.63;;;16.60;94.50;;;;;;4948455;29;20027;-82
2022/10/12 11:26:06;;;;;;;19.38;12.27;;;16.70;94.70;;;;;;4959914;28;20530;-83
2022/10/12 11:28:34;;;;;;;17.85;11.10;;;17.00;93.80;;;;;;4954125;29;20038;-83
2022/10/12 11:31:01;;;;;;;20.40;11.30;;;17.20;93.80;;;;;;4972569;28;20027;-83
2022/10/12 11:33:37;;;;;;;15.10;11.00;;;17.40;93.40;;;;;;4976267;28;20070;-83
2022/10/12 11:36:06;;;;;;;30.45;12.70;;;17.40;92.70;;;;;;4984011;28;20022;-82
2022/10/12 11:39:06;;;;;;;18.58;12.13;;;17.60;92.10;;;;;;4972728;28;20023;-82
2022/10/12 11:41:45;;;;;;;16.25;11.05;;;17.50;92.20;;;;;;4951134;29;20062;-81
2022/10/12 11:44:26;;;;;;;18.40;12.75;;;17.50;92.90;;;;;;4967470;29;20050;-82
2022/10/12 11:47:00;;;;;;;15.38;11.18;;;17.40;92.50;;;;;;4972453;28;20035;-82
2022/10/12 11:50:02;;;;;;;18.58;13.10;;;17.40;93.20;;;;;;4976439;28;20039;-81
2022/10/12 11:52:38;;;;;;;21.08;12.27;;;17.20;92.60;;;;;;4983701;28;20027;-82
2022/10/12 11:55:16;;;;;;;17.48;10.25;;;17.20;92.80;;;;;;4975287;28;20031;-82
2022/10/12 11:57:42;;;;;;;18.48;11.70;;;17.10;93.50;;;;;;4975424;28;20023;-82
2022/10/12 12:00:21;;;;;;;18.13;12.18;;;17.20;93.10;;;;;;4981691;28;20623;-82
2022/10/12 12:03:03;;;;;;;22.25;12.75;;;17.10;93.50;;;;;;4984994;28;20030;-82
2022/10/12 12:05:32;;;;;;;19.52;13.00;;;17.00;93.30;;;;;;4983922;28;20177;-82
2022/10/12 12:07:57;;;;;;;18.23;11.48;;;16.90;93.70;;;;;;4973634;28;20122;-82
2022/10/12 12:10:36;;;;;;;20.98;11.27;;;16.80;93.70;;;;;;4954247;28;20031;-81
2022/10/12 12:13:13;;;;;;;14.48;9.52;;;16.80;94.10;;;;;;4985225;28;20094;-81
2022/10/12 12:15:40;;;;;;;19.25;12.05;;;17.00;94.30;;;;;;4991994;28;20033;-81
2022/10/12 12:18:13;;;;;;;19.48;11.93;;;17.10;93.60;;;;;;4997729;28;20015;-81
2022/10/12 12:20:41;;;;;;;17.60;11.82;;;17.00;93.30;;;;;;4998294;28;20034;-82
2022/10/12 12:23:24;;;;;;;25.45;13.30;;;17.00;93.40;;;;;;4988852;28;20048;-82
2022/10/12 12:26:08;;;;;;;22.00;12.32;;;17.00;93.70;;;;;;4964175;28;20031;-80
2022/10/12 12:28:36;;;;;;;19.73;12.50;;;17.00;93.90;;;;;;4963213;29;20488;-82
2022/10/12 12:31:24;;;;;;;22.13;12.32;;;17.00;93.80;;;;;;4970872;28;20030;-82
2022/10/12 12:34:04;;;;;;;27.73;13.93;;;17.00;93.30;;;;;;4986602;28;20027;-81
2022/10/12 12:36:34;;;;;;;18.15;11.48;;;16.90;93.00;;;;;;4988713;28;20039;-81
2022/10/12 12:39:00;;;;;;;17.50;11.63;;;16.80;93.60;;;;;;4981205;28;20023;-82
2022/10/12 12:41:49;;;;;;;24.55;13.73;;;16.70;93.80;;;;;;4984608;28;20039;-81
2022/10/12 12:44:39;;;;;;;15.60;11.48;;;16.70;94.00;;;;;;4958122;28;20036;-82
2022/10/12 12:47:08;;;;;;;19.58;11.85;;;16.60;93.90;;;;;;4983503;28;20019;-83